Time;durP1;ratioP1;P1;durP2;ratioP2;P2;SDS_P1;SDS_P2;PMS_P1;PMS_P2;Temp;Humidity;BMP_temperature;BMP_pressure;BME280_temperature;BME280_humidity;BME280_pressure;Samples;Min_cycle;Max_cycle;Signal;HPM_P1;HPM_P2
2022/03/31 00:00:49;;;;;;;16.00;10.23;;;;;;;2.00;74.40;99416.61;1792734;80;21012;-74
2022/03/31 00:03:19;;;;;;;15.80;8.83;;;;;;;1.99;74.46;99410.16;1792676;80;20992;-74
2022/03/31 00:05:48;;;;;;;15.33;10.10;;;;;;;1.98;74.44;99406.73;1825113;78;21517;-74
2022/03/31 00:08:18;;;;;;;17.53;11.10;;;;;;;1.95;74.51;99409.38;1793005;80;21012;-74
2022/03/31 00:10:48;;;;;;;;;;;;;;;1.97;74.62;99405.48;1827925;78;21133;-74
2022/03/31 00:13:22;;;;;;;18.40;9.73;;;;;;;1.98;74.62;99413.20;1825105;78;20450;-74
2022/03/31 00:15:49;;;;;;;17.80;10.77;;;;;;;1.97;74.74;99409.36;1824700;78;20972;-74
2022/03/31 00:18:18;;;;;;;15.77;9.90;;;;;;;1.97;74.76;99411.95;1792562;80;21033;-74
2022/03/31 00:20:45;;;;;;;16.50;10.13;;;;;;;1.96;74.75;99406.34;1825236;78;20984;-74
2022/03/31 00:23:13;;;;;;;15.47;10.43;;;;;;;1.95;74.80;99410.67;1792687;80;21087;-74
2022/03/31 00:25:40;;;;;;;14.87;9.83;;;;;;;1.95;74.62;99411.12;1825052;78;21000;-74
2022/03/31 00:28:08;;;;;;;16.40;10.20;;;;;;;1.94;74.83;99411.56;1792649;80;20988;-79
2022/03/31 00:30:35;;;;;;;17.53;10.17;;;;;;;1.94;74.85;99401.22;1825188;78;21044;-74
2022/03/31 00:33:03;;;;;;;18.37;10.77;;;;;;;1.93;74.72;99402.53;1825501;78;20995;-74
2022/03/31 00:35:30;;;;;;;17.43;10.07;;;;;;;1.94;74.99;99393.47;1792688;80;21085;-74
2022/03/31 00:37:58;;;;;;;17.50;10.33;;;;;;;1.98;74.98;99396.84;1822860;78;20985;-73
2022/03/31 00:40:27;;;;;;;18.90;10.33;;;;;;;1.99;74.93;99392.08;1821759;78;21007;-74
2022/03/31 00:42:57;;;;;;;16.53;10.30;;;;;;;1.97;74.89;99393.86;1789553;80;21033;-74
2022/03/31 00:45:29;;;;;;;17.33;10.67;;;;;;;1.96;74.96;99385.23;1821753;78;21504;-74
2022/03/31 00:47:56;;;;;;;18.00;9.83;;;;;;;1.96;74.78;99382.64;1821925;78;21089;-74
2022/03/31 00:50:26;;;;;;;15.30;9.67;;;;;;;1.97;74.62;99389.53;1789348;80;21414;-74
2022/03/31 00:52:54;;;;;;;16.73;9.87;;;;;;;1.95;74.62;99386.12;1821868;78;21007;-74
2022/03/31 00:55:21;;;;;;;15.37;9.63;;;;;;;1.94;74.61;99381.84;1821831;78;21008;-75
2022/03/31 00:57:55;;;;;;;19.33;9.40;;;;;;;1.95;74.65;99388.70;1789692;80;21444;-74
2022/03/31 01:00:18;;;;;;;19.13;10.03;;;;;;;1.94;74.61;99385.72;1788516;80;21824;-74
2022/03/31 01:02:45;;;;;;;15.03;10.43;;;;;;;1.92;74.50;99379.72;1821868;78;20896;-74
2022/03/31 01:05:16;;;;;;;13.63;9.07;;;;;;;1.91;74.52;99371.98;1789315;80;21020;-74
2022/03/31 01:07:43;;;;;;;16.47;9.90;;;;;;;1.92;74.79;99372.41;1821884;78;21498;-74
2022/03/31 01:10:13;;;;;;;15.80;10.33;;;;;;;1.95;74.73;99374.94;1789232;80;21015;-74
2022/03/31 01:12:42;;;;;;;15.18;9.70;;;;;;;1.95;74.69;99368.03;1821731;78;21107;-74
2022/03/31 01:15:17;;;;;;;15.77;10.00;;;;;;;1.95;74.68;99369.32;1821676;78;21051;-75
2022/03/31 01:17:47;;;;;;;15.83;9.97;;;;;;;1.92;74.47;99371.13;1821869;78;20988;-74
2022/03/31 01:20:20;;;;;;;;;;;;;;;1.90;74.48;99371.58;1791989;80;20995;-74
2022/03/31 01:22:48;;;;;;;15.53;9.40;;;;;;;1.90;74.54;99376.30;1822024;78;20390;-74
2022/03/31 01:25:19;;;;;;;16.10;10.20;;;;;;;1.89;74.48;99362.13;1789279;80;21118;-74
2022/03/31 01:27:48;;;;;;;14.83;8.63;;;;;;;1.89;74.51;99367.30;1789827;80;21039;-74
2022/03/31 01:30:19;;;;;;;16.10;9.87;;;;;;;1.87;74.25;99366.02;1821706;78;20978;-75
2022/03/31 01:32:47;;;;;;;15.80;10.00;;;;;;;1.88;74.49;99369.01;1821969;78;20991;-74
2022/03/31 01:35:15;;;;;;;16.33;10.03;;;;;;;1.89;74.54;99368.15;1789448;80;21056;-74
2022/03/31 01:37:43;;;;;;;17.27;9.93;;;;;;;1.91;74.28;99374.15;1824243;78;21097;-79
2022/03/31 01:40:11;;;;;;;15.83;10.10;;;;;;;1.91;74.34;99374.56;1795037;80;21007;-74
2022/03/31 01:42:39;;;;;;;13.50;9.80;;;;;;;1.92;74.40;99379.72;1827738;78;21473;-78
2022/03/31 01:45:10;;;;;;;13.53;8.93;;;;;;;1.95;74.31;99381.39;1827956;78;20901;-74
2022/03/31 01:47:38;;;;;;;15.47;10.33;;;;;;;1.98;74.31;99379.59;1795232;80;20956;-74
2022/03/31 01:50:09;;;;;;;17.37;10.20;;;;;;;1.99;74.14;99373.54;1795471;80;21105;-74
2022/03/31 01:52:37;;;;;;;15.05;8.93;;;;;;;2.03;74.19;99374.80;1795037;80;20983;-74
2022/03/31 01:55:05;;;;;;;12.40;9.17;;;;;;;2.05;74.16;99376.89;1827873;78;21004;-74
2022/03/31 01:57:33;;;;;;;17.43;9.73;;;;;;;2.04;73.95;99377.34;1827803;78;20996;-74
2022/03/31 02:00:05;;;;;;;15.33;9.20;;;;;;;2.02;73.79;99377.80;1795436;80;21003;-74
2022/03/31 02:02:31;;;;;;;17.10;9.93;;;;;;;2.03;73.74;99382.55;1791526;80;21951;-74
2022/03/31 02:04:58;;;;;;;14.73;9.53;;;;;;;2.00;73.69;99379.59;1827881;78;22195;-74
2022/03/31 02:07:26;;;;;;;15.10;9.40;;;;;;;2.01;73.68;99384.70;1795297;80;20988;-75
2022/03/31 02:09:53;;;;;;;17.83;9.60;;;;;;;2.03;73.68;99382.11;1827897;78;20999;-74
2022/03/31 02:12:21;;;;;;;15.40;10.33;;;;;;;2.03;73.58;99383.84;1827601;78;21627;-74
2022/03/31 02:14:50;;;;;;;14.70;10.03;;;;;;;2.03;73.57;99383.84;1795424;80;21329;-74
2022/03/31 02:17:17;;;;;;;17.47;9.97;;;;;;;2.03;73.45;99384.70;1827697;78;21012;-74
2022/03/31 02:19:47;;;;;;;14.53;9.70;;;;;;;2.04;73.66;99384.25;1795386;80;21058;-74
2022/03/31 02:22:14;;;;;;;;;;;;;;;2.04;73.60;99388.12;1830427;78;21062;-74
2022/03/31 02:24:41;;;;;;;16.50;9.13;;;;;;;2.01;73.54;99384.70;1786903;80;20477;-74
2022/03/31 02:27:08;;;;;;;15.60;9.10;;;;;;;1.98;73.23;99382.63;1786408;80;21194;-79
2022/03/31 02:29:50;;;;;;;14.93;9.20;;;;;;;1.97;73.30;99384.81;1778047;78;21074;31
2022/03/31 02:32:17;;;;;;;16.87;10.10;;;;;;;1.97;73.41;99384.37;1648145;85;21051;-74
2022/03/31 02:34:44;;;;;;;13.37;9.10;;;;;;;1.97;73.23;99381.78;1649677;87;21492;-74
2022/03/31 02:37:12;;;;;;;15.90;9.33;;;;;;;1.99;73.29;99384.32;1647329;87;21205;-74
2022/03/31 02:39:40;;;;;;;14.03;9.23;;;;;;;1.98;73.07;99377.46;1689061;85;21143;-77
2022/03/31 02:42:07;;;;;;;15.53;10.53;;;;;;;1.99;73.13;99378.70;1688974;85;20957;-74
2022/03/31 02:44:35;;;;;;;13.37;8.50;;;;;;;1.98;73.08;99378.31;1689241;85;21006;-75
2022/03/31 02:47:03;;;;;;;16.80;9.63;;;;;;;1.94;72.88;99380.97;1689000;85;20998;-74
2022/03/31 02:49:30;;;;;;;18.80;10.20;;;;;;;1.89;72.87;99383.66;1689285;85;21026;-74
2022/03/31 02:51:58;;;;;;;14.63;9.20;;;;;;;1.84;72.77;99389.34;1688933;85;21954;-74
2022/03/31 02:57:11;;;;;;;14.13;8.97;;;;;;;1.80;73.00;99385.09;1666799;85;21104;-74
2022/03/31 02:59:39;;;;;;;15.70;9.13;;;;;;;1.79;73.10;99387.27;1647376;87;21119;-75
2022/03/31 03:02:06;;;;;;;14.23;8.90;;;;;;;1.78;73.07;99381.70;1647413;87;21037;-74
2022/03/31 03:04:36;;;;;;;13.63;9.00;;;;;;;1.77;72.92;99386.44;1622735;87;21133;-74
2022/03/31 03:07:05;;;;;;;15.08;9.00;;;;;;;1.73;72.92;99380.92;1701895;84;21032;-74
2022/03/31 03:09:32;;;;;;;15.40;9.07;;;;;;;1.69;72.80;99376.27;1701987;84;21482;-74
2022/03/31 03:11:59;;;;;;;16.40;9.77;;;;;;;1.68;72.99;99378.41;1701752;84;21088;-74
2022/03/31 03:14:27;;;;;;;15.53;9.80;;;;;;;1.65;73.05;99372.02;1701988;84;21056;-75
2022/03/31 03:16:54;;;;;;;16.33;10.47;;;;;;;1.64;73.02;99374.19;1701677;84;21150;-75
2022/03/31 03:19:21;;;;;;;15.97;9.00;;;;;;;1.58;72.89;99375.59;1701977;84;21047;-75
2022/03/31 03:21:48;;;;;;;15.37;9.07;;;;;;;1.46;72.85;99375.78;1701684;84;21091;-76
2022/03/31 03:24:15;;;;;;;15.00;9.67;;;;;;;1.36;72.97;99374.22;1701904;84;21657;-75
2022/03/31 03:26:42;;;;;;;16.10;10.00;;;;;;;1.29;73.12;99375.61;1701828;84;21509;-75
2022/03/31 03:29:09;;;;;;;13.90;9.20;;;;;;;1.22;73.18;99374.02;1702108;84;21131;-76
2022/03/31 03:31:37;;;;;;;12.70;8.90;;;;;;;1.19;73.20;99377.94;1711923;82;21055;-75
2022/03/31 03:34:04;;;;;;;25.80;17.20;;;;;;;1.15;73.34;99376.71;1718953;83;21509;-75
2022/03/31 03:36:31;;;;;;;15.97;10.03;;;;;;;1.10;73.46;99376.33;1719120;83;21024;-76
2022/03/31 03:38:59;;;;;;;15.27;10.33;;;;;;;1.10;73.75;99376.77;1719051;83;21076;-75
2022/03/31 03:41:26;;;;;;;14.90;9.30;;;;;;;1.08;73.90;99378.09;1723955;83;21322;-75
2022/03/31 03:43:53;;;;;;;13.73;9.83;;;;;;;1.04;74.10;99375.58;1724182;83;21414;-75
2022/03/31 03:46:20;;;;;;;12.47;8.80;;;;;;;1.02;74.32;99384.62;1723886;83;20993;-75
2022/03/31 03:48:49;;;;;;;12.73;9.30;;;;;;;1.00;74.57;99386.80;1724189;83;21080;-75
2022/03/31 03:51:16;;;;;;;14.23;9.37;;;;;;;1.00;74.76;99393.25;1723868;83;21502;-75
2022/03/31 03:53:43;;;;;;;12.23;9.13;;;;;;;1.00;75.10;99388.97;1724212;83;21128;-75
2022/03/31 03:56:10;;;;;;;13.83;8.80;;;;;;;0.98;75.08;99390.71;1723927;83;21048;-76
2022/03/31 03:58:38;;;;;;;11.43;7.87;;;;;;;0.95;75.05;99391.20;1724232;83;21080;-75
2022/03/31 04:01:05;;;;;;;14.57;9.10;;;;;;;0.94;75.26;99386.45;1724010;83;21072;-75
2022/03/31 04:03:32;;;;;;;15.17;8.27;;;;;;;0.88;75.19;99389.97;1724147;83;21045;-75
2022/03/31 04:05:59;;;;;;;17.07;10.40;;;;;;;0.87;75.42;99389.56;1723911;83;21546;-74
2022/03/31 04:08:27;;;;;;;13.63;9.33;;;;;;;0.87;75.60;99394.73;1724143;83;21033;-84
2022/03/31 04:10:55;;;;;;;15.40;10.00;;;;;;;0.87;75.70;99397.75;1723906;83;21489;-74
2022/03/31 04:13:22;;;;;;;26.07;16.40;;;;;;;0.85;75.66;99399.05;1724080;83;21466;-81
2022/03/31 04:15:49;;;;;;;30.37;17.47;;;;;;;0.85;75.87;99395.62;1723913;83;21027;-74
2022/03/31 04:18:16;;;;;;;34.37;19.00;;;;;;;0.82;75.84;99396.95;1723968;83;21133;-73
2022/03/31 04:20:43;;;;;;;34.77;16.00;;;;;;;0.82;75.97;99401.67;1723841;83;21012;-73
2022/03/31 04:23:12;;;;;;;29.50;15.47;;;;;;;0.81;76.04;99397.84;1723897;83;21016;-74
2022/03/31 04:25:39;;;;;;;42.97;18.20;;;;;;;0.82;76.43;99400.38;1724276;83;21017;-74
2022/03/31 04:28:07;;;;;;;17.53;10.17;;;;;;;0.80;76.19;99399.98;1723981;83;21000;-74
2022/03/31 04:30:34;;;;;;;19.67;10.60;;;;;;;0.79;76.25;99400.42;1724277;83;21128;-74
2022/03/31 04:33:02;;;;;;;21.27;12.47;;;;;;;0.78;76.31;99396.59;1723895;83;21064;-73
2022/03/31 04:35:29;;;;;;;38.53;20.80;;;;;;;0.77;76.34;99401.31;1724162;83;21509;-73
2022/03/31 04:37:56;;;;;;;96.57;33.90;;;;;;;0.76;76.29;99403.05;1724012;83;21052;-73
2022/03/31 04:40:24;;;;;;;29.37;14.50;;;;;;;0.77;76.45;99403.45;1724264;83;21445;-73
2022/03/31 04:42:52;;;;;;;15.33;10.47;;;;;;;0.79;76.56;99402.16;1723894;83;22057;-80
2022/03/31 04:45:19;;;;;;;15.43;9.77;;;;;;;0.79;76.65;99407.32;1724184;83;21004;-73
2022/03/31 04:47:46;;;;;;;33.60;16.20;;;;;;;0.83;76.88;99413.72;1724080;83;20993;-73
2022/03/31 04:50:14;;;;;;;17.37;10.17;;;;;;;0.84;76.70;99415.41;1724388;83;21023;-73
2022/03/31 04:52:42;;;;;;;19.40;11.30;;;;;;;0.82;76.83;99415.02;1724051;83;21021;-74
2022/03/31 04:55:11;;;;;;;14.97;9.37;;;;;;;0.83;76.83;99412.42;1724273;83;21114;-76
2022/03/31 04:57:39;;;;;;;17.33;10.73;;;;;;;0.80;76.54;99406.44;1724083;83;21008;-81
2022/03/31 05:00:08;;;;;;;28.30;15.17;;;;;;;0.78;76.62;99408.20;1698834;83;21106;-74
2022/03/31 05:02:35;;;;;;;19.03;10.60;;;;;;;0.76;76.65;99409.94;1695056;84;21524;-74
2022/03/31 05:05:03;;;;;;;22.37;11.60;;;;;;;0.75;76.84;99410.38;1695062;84;21003;-74
2022/03/31 05:07:30;;;;;;;14.43;9.40;;;;;;;0.76;77.04;99406.92;1695103;84;21135;-74
2022/03/31 05:09:58;;;;;;;18.50;10.83;;;;;;;0.78;76.94;99408.20;1695082;84;21333;-74
2022/03/31 05:12:25;;;;;;;21.23;11.50;;;;;;;0.81;77.10;99410.30;1695047;84;21607;-74
2022/03/31 05:14:52;;;;;;;14.33;8.67;;;;;;;0.84;77.11;99417.14;1695039;84;21019;-74
2022/03/31 05:17:19;;;;;;;17.23;9.90;;;;;;;0.87;77.13;99408.07;1695013;84;21616;-74
2022/03/31 05:19:46;;;;;;;16.00;9.97;;;;;;;0.87;77.06;99408.91;1695037;84;21964;-73
2022/03/31 05:22:13;;;;;;;13.70;8.77;;;;;;;0.87;76.92;99413.23;1694967;84;21007;-74
2022/03/31 05:24:40;;;;;;;12.40;9.37;;;;;;;0.89;76.98;99416.65;1694958;84;21071;-73
2022/03/31 05:27:07;;;;;;;16.17;9.00;;;;;;;0.92;77.19;99417.05;1712763;81;21557;-73
2022/03/31 05:29:35;;;;;;;51.40;22.17;;;;;;;0.95;77.16;99407.97;1723461;83;20993;-73
2022/03/31 05:32:03;;;;;;;18.43;10.60;;;;;;;1.01;77.39;99408.73;1729781;82;21114;-73
2022/03/31 05:34:30;;;;;;;12.90;8.40;;;;;;;1.02;77.10;99407.84;1735229;82;21004;-73
2022/03/31 05:36:57;;;;;;;13.20;9.67;;;;;;;1.03;77.11;99410.01;1708417;82;21044;-73
2022/03/31 05:39:24;;;;;;;15.53;9.77;;;;;;;1.04;77.20;99407.39;1735206;82;21037;-73
2022/03/31 05:41:52;;;;;;;13.67;9.03;;;;;;;1.07;77.18;99406.50;1732419;82;21039;-74
2022/03/31 05:44:20;;;;;;;18.17;11.13;;;;;;;1.06;76.89;99414.68;1698013;84;21344;-76
2022/03/31 05:46:47;;;;;;;16.17;9.43;;;;;;;1.06;76.80;99412.55;1698192;84;22036;-73
2022/03/31 05:49:14;;;;;;;23.27;12.87;;;;;;;1.05;76.66;99413.40;1698065;84;21071;-74
2022/03/31 05:51:40;;;;;;;13.40;8.77;;;;;;;1.02;76.63;99410.86;1703862;82;21040;-73
2022/03/31 05:54:07;;;;;;;12.90;9.20;;;;;;;1.01;76.41;99413.04;1707891;82;21480;-75
2022/03/31 05:56:34;;;;;;;16.37;10.00;;;;;;;1.02;76.55;99410.42;1700968;82;21908;-74
2022/03/31 05:59:01;;;;;;;14.97;9.10;;;;;;;1.09;76.70;99408.19;1727941;82;21054;-74
2022/03/31 06:01:28;;;;;;;17.10;10.37;;;;;;;1.13;76.66;99406.40;1710033;83;21050;-73
2022/03/31 06:03:55;;;;;;;12.83;8.97;;;;;;;1.15;76.49;99410.27;1722305;83;21020;-73
2022/03/31 06:06:26;;;;;;;16.00;8.53;;;;;;;1.14;76.45;99405.55;1704719;83;20985;-73
2022/03/31 06:08:53;;;;;;;;;;;;;;;1.14;76.37;99411.12;1700890;83;21076;-74
2022/03/31 06:11:19;;;;;;;13.80;8.33;;;;;;;1.12;76.35;99412.45;1707324;82;20182;-73
2022/03/31 06:13:46;;;;;;;13.70;9.23;;;;;;;1.10;76.20;99419.35;1702840;84;21011;-74
2022/03/31 06:16:13;;;;;;;14.70;9.13;;;;;;;1.11;76.25;99421.08;1702479;84;21043;-75
2022/03/31 06:18:41;;;;;;;14.10;9.00;;;;;;;1.10;76.09;99425.80;1702908;84;21054;-73
2022/03/31 06:21:09;;;;;;;12.57;8.37;;;;;;;1.10;76.13;99424.52;1702491;84;21205;-73
2022/03/31 06:23:36;;;;;;;13.60;9.33;;;;;;;1.09;75.97;99426.25;1702786;84;21051;-73
2022/03/31 06:26:03;;;;;;;17.50;10.97;;;;;;;1.09;76.11;99424.11;1702645;82;21038;-73
2022/03/31 06:28:31;;;;;;;12.63;9.13;;;;;;;1.10;76.25;99424.07;1702844;84;21003;-73
2022/03/31 06:30:58;;;;;;;12.03;8.43;;;;;;;1.13;76.14;99428.34;1709097;82;21032;-73
2022/03/31 06:33:26;;;;;;;12.07;7.93;;;;;;;1.12;75.96;99429.22;1714209;82;21125;-77
2022/03/31 06:35:53;;;;;;;13.17;8.63;;;;;;;1.10;75.84;99429.23;1728567;83;21532;-75
2022/03/31 06:38:20;;;;;;;12.60;8.83;;;;;;;1.13;75.98;99433.94;1729188;83;21063;-74
2022/03/31 06:41:06;;;;;;;12.07;8.63;;;;;;;1.15;76.16;99430.47;1727159;83;21043;-73
2022/03/31 06:43:17;;;;;;;16.40;10.67;;;;;;;1.14;75.68;99426.60;1722615;81;20990;-73
2022/03/31 06:45:45;;;;;;;15.77;8.93;;;;;;;1.13;75.74;99429.63;1729439;83;21008;-78
2022/03/31 06:48:13;;;;;;;12.20;9.10;;;;;;;1.15;75.69;99429.63;1729777;83;21002;-75
2022/03/31 06:50:42;;;;;;;13.10;9.43;;;;;;;1.16;75.78;99431.31;1732226;81;21029;-79
2022/03/31 06:53:10;;;;;;;12.73;9.30;;;;;;;1.18;75.61;99429.13;1714525;81;21556;-73
2022/03/31 06:55:38;;;;;;;14.53;9.30;;;;;;;1.16;75.55;99434.74;1682479;82;21079;-73
2022/03/31 06:58:06;;;;;;;15.77;10.43;;;;;;;1.15;75.44;99439.50;1733240;81;21109;-73
2022/03/31 07:00:35;;;;;;;15.33;9.10;;;;;;;1.23;75.77;99447.14;1727919;82;21015;-74
2022/03/31 07:03:03;;;;;;;16.17;9.30;;;;;;;1.24;75.66;99441.94;1729339;83;21041;-73
2022/03/31 07:05:31;;;;;;;14.90;8.53;;;;;;;1.25;75.62;99433.78;1702912;82;21011;-78
2022/03/31 07:08:00;;;;;;;16.67;8.77;;;;;;;1.27;75.50;99434.59;1702045;83;21530;-73
2022/03/31 07:10:27;;;;;;;14.67;8.47;;;;;;;1.30;75.59;99431.55;1696615;83;21374;-73
2022/03/31 07:12:57;;;;;;;11.90;8.43;;;;;;;1.37;75.65;99434.88;1700064;82;21489;-73
2022/03/31 07:15:27;;;;;;;12.43;8.20;;;;;;;1.42;75.67;99432.23;1717823;82;21013;-74
2022/03/31 07:17:59;;;;;;;15.80;8.88;;;;;;;1.43;75.46;99437.80;1713364;82;21588;-73
2022/03/31 07:20:28;;;;;;;14.60;8.40;;;;;;;1.41;75.16;99439.55;1731222;81;21047;-74
2022/03/31 07:22:59;;;;;;;11.73;8.13;;;;;;;1.39;75.08;99446.05;1734428;81;21016;-74
2022/03/31 07:25:28;;;;;;;14.37;9.07;;;;;;;1.41;75.18;99448.14;1745135;81;21501;-73
2022/03/31 07:27:57;;;;;;;13.07;8.20;;;;;;;1.44;75.31;99447.24;1712889;81;37436;-73
2022/03/31 07:30:26;;;;;;;13.93;8.90;;;;;;;1.45;75.35;99447.68;1709308;81;21039;-73
2022/03/31 07:32:58;;;;;;;13.33;8.57;;;;;;;1.42;74.98;99455.48;1723759;81;21079;-73
2022/03/31 07:35:30;;;;;;;13.13;9.00;;;;;;;1.40;75.06;99458.06;1707845;83;22132;-73
2022/03/31 07:37:59;;;;;;;12.57;9.30;;;;;;;1.39;74.99;99451.20;1692628;84;21508;-74
2022/03/31 07:40:30;;;;;;;14.83;9.13;;;;;;;1.40;75.10;99443.87;1715941;83;21023;-75
2022/03/31 07:43:02;;;;;;;14.77;9.13;;;;;;;1.43;75.30;99448.13;1721535;83;20996;-74
2022/03/31 07:45:39;;;;;;;13.40;8.50;;;;;;;1.46;75.04;99441.62;1694762;83;21168;-73
2022/03/31 07:48:12;;;;;;;16.47;9.80;;;;;;;1.43;74.90;99438.66;1721170;82;21036;-75
2022/03/31 07:50:40;;;;;;;17.35;12.13;;;;;;;1.46;74.99;99433.44;1713919;83;21046;-73
2022/03/31 07:53:12;;;;;;;15.30;9.90;;;;;;;1.50;74.83;99435.11;1709493;83;21031;-74
2022/03/31 07:55:43;;;;;;;15.67;10.47;;;;;;;1.60;74.95;99433.66;1717531;82;21474;-72
2022/03/31 07:58:13;;;;;;;16.10;9.95;;;;;;;1.67;74.85;99436.58;1731850;82;21004;-73
2022/03/31 08:00:42;;;;;;;16.77;9.63;;;;;;;1.73;74.91;99437.31;1731562;82;21229;-72
2022/03/31 08:03:13;;;;;;;15.23;10.00;;;;;;;1.82;74.79;99447.08;1731473;82;21075;-73
2022/03/31 08:05:45;;;;;;;15.17;10.00;;;;;;;1.82;74.71;99453.09;1731329;82;21023;-74
2022/03/31 08:08:17;;;;;;;18.43;11.67;;;;;;;1.87;74.74;99442.70;1731744;82;21045;-72
2022/03/31 08:10:44;;;;;;;;;;;;;;;1.91;74.55;99443.05;1717656;82;21571;-72
2022/03/31 08:13:13;;;;;;;15.60;10.77;;;;;;;1.93;74.41;99443.43;1692704;83;22102;-73
2022/03/31 08:15:44;;;;;;;18.25;11.33;;;;;;;1.95;74.27;99441.68;1692358;83;21030;-74
2022/03/31 08:18:12;;;;;;;55.48;22.60;;;;;;;1.98;74.09;99441.62;1715381;83;21051;-75
2022/03/31 08:20:41;;;;;;;16.67;11.40;;;;;;;2.00;74.04;99442.91;1689021;83;21024;-74
2022/03/31 08:23:09;;;;;;;21.60;12.17;;;;;;;1.99;74.17;99442.03;1661603;83;21036;-73
2022/03/31 08:25:37;;;;;;;25.13;13.47;;;;;;;2.04;73.96;99447.57;1715401;83;21499;-73
2022/03/31 08:28:08;;;;;;;18.67;11.73;;;;;;;2.05;73.79;99442.80;1715254;83;21032;-74
2022/03/31 08:30:36;;;;;;;19.70;12.20;;;;;;;2.07;73.70;99442.34;1718626;81;21082;-73
2022/03/31 08:33:05;;;;;;;21.23;12.10;;;;;;;2.03;73.61;99444.59;1721013;82;21094;-73
2022/03/31 08:35:35;;;;;;;18.17;12.13;;;;;;;2.05;73.69;99439.80;1726065;83;21258;-73
2022/03/31 08:38:05;;;;;;;17.73;12.23;;;;;;;2.07;73.64;99436.73;1700539;84;21061;-73
2022/03/31 08:40:35;;;;;;;18.77;11.78;;;;;;;2.14;73.61;99433.61;1700583;84;21004;-73
2022/03/31 08:43:05;;;;;;;20.88;13.35;;;;;;;2.14;73.63;99432.32;1700706;84;21433;-74
2022/03/31 08:45:36;;;;;;;;;;;;;;;2.25;73.71;99426.51;1703185;84;21031;-73
2022/03/31 08:48:06;;;;;;;23.67;11.73;;;;;;;2.33;73.60;99426.34;1700565;84;20614;-74
2022/03/31 08:50:37;;;;;;;18.90;12.97;;;;;;;2.38;73.52;99424.11;1700282;84;21934;-72
2022/03/31 08:53:07;;;;;;;20.33;12.90;;;;;;;2.44;73.64;99425.72;1700474;84;21023;-72
2022/03/31 08:55:40;;;;;;;21.03;12.70;;;;;;;2.50;73.71;99430.77;1699294;84;21575;-73
2022/03/31 08:58:10;;;;;;;21.53;14.70;;;;;;;2.50;73.36;99429.92;1700403;84;21585;-71
2022/03/31 09:00:41;;;;;;;25.10;13.93;;;;;;;2.53;73.52;99430.70;1700430;84;21309;-73
2022/03/31 09:03:11;;;;;;;21.20;13.43;;;;;;;2.59;73.42;99421.97;1700556;84;21116;-73
2022/03/31 09:05:42;;;;;;;20.57;11.85;;;;;;;2.62;73.41;99417.57;1700538;84;21027;-73
2022/03/31 09:08:13;;;;;;;26.47;14.57;;;;;;;2.65;73.28;99427.86;1700489;84;21035;-72
2022/03/31 09:10:52;;;;;;;17.20;11.67;;;;;;;2.67;73.30;99420.08;1700617;84;21008;-74
2022/03/31 09:13:40;;;;;;;25.10;14.40;;;;;;;2.69;73.22;99420.91;1730337;81;21031;-73
2022/03/31 09:16:11;;;;;;;17.63;12.80;;;;;;;2.76;73.36;99415.15;1730808;81;21140;-73
2022/03/31 09:18:40;;;;;;;19.60;12.80;;;;;;;2.81;73.37;99420.64;1737252;82;21019;-73
2022/03/31 09:21:11;;;;;;;18.80;11.93;;;;;;;2.81;73.11;99425.81;1737062;82;21051;-72
2022/03/31 09:23:47;;;;;;;17.33;11.40;;;;;;;2.83;73.03;99426.64;1708318;82;21022;-72
2022/03/31 09:26:17;;;;;;;17.43;11.20;;;;;;;2.90;73.01;99425.61;1705762;83;21591;-72
2022/03/31 09:28:45;;;;;;;18.37;11.00;;;;;;;2.97;72.98;99434.11;1696772;84;21119;-73
2022/03/31 09:31:13;;;;;;;14.80;10.90;;;;;;;3.04;72.96;99433.08;1697120;84;21024;-73
2022/03/31 09:33:48;;;;;;;15.47;10.53;;;;;;;3.10;72.92;99434.26;1685270;84;21016;-74
2022/03/31 09:36:23;;;;;;;16.20;10.40;;;;;;;3.18;72.80;99439.24;1673458;82;21048;-75
2022/03/31 09:39:02;;;;;;;15.07;11.60;;;;;;;3.30;73.03;99438.98;1692444;84;21036;-72
2022/03/31 09:41:33;;;;;;;18.20;11.50;;;;;;;3.39;72.79;99443.09;1697019;84;21153;-72
2022/03/31 09:44:05;;;;;;;16.63;10.70;;;;;;;3.41;72.46;99445.64;1713429;82;21415;-72
2022/03/31 09:46:38;;;;;;;16.93;11.57;;;;;;;3.48;72.69;99448.50;1733444;81;21106;-73
2022/03/31 09:49:22;;;;;;;19.00;11.43;;;;;;;3.56;72.62;99446.59;1725588;81;21036;-72
2022/03/31 09:51:54;;;;;;;15.30;10.77;;;;;;;3.58;72.18;99439.19;1729410;83;21090;-74
2022/03/31 09:54:25;;;;;;;16.43;11.50;;;;;;;3.61;72.08;99443.45;1696957;84;22074;-75
2022/03/31 09:56:53;;;;;;;17.13;11.20;;;;;;;3.68;72.17;99448.88;1729116;83;21019;-73
2022/03/31 09:59:20;;;;;;;18.77;12.10;;;;;;;3.75;72.34;99442.66;1697041;84;21041;-73
2022/03/31 10:01:47;;;;;;;15.63;10.57;;;;;;;3.82;72.13;99436.87;1704260;82;21031;-74
2022/03/31 10:04:16;;;;;;;16.50;12.03;;;;;;;3.87;71.90;99441.50;1667744;84;21511;-75
2022/03/31 10:06:43;;;;;;;16.20;10.60;;;;;;;3.91;71.87;99430.18;1690696;84;21011;-72
2022/03/31 10:09:12;;;;;;;16.83;10.83;;;;;;;3.98;71.74;99426.97;1688330;84;20997;-73
2022/03/31 10:11:46;;;;;;;21.60;14.63;;;;;;;4.06;71.68;99427.63;1696947;84;21032;-72
2022/03/31 10:14:35;;;;;;;14.43;10.53;;;;;;;4.15;71.53;99418.75;1669298;83;21551;-73
2022/03/31 10:17:10;;;;;;;16.47;10.70;;;;;;;4.25;71.52;99420.22;1689972;82;21031;-74
2022/03/31 10:19:42;;;;;;;13.83;10.53;;;;;;;4.37;71.49;99413.38;1696762;84;21210;-75
2022/03/31 10:25:09;;;;;;;14.50;11.20;;;;;;;4.47;70.91;99408.36;1729099;83;21050;-75
2022/03/31 10:27:40;;;;;;;15.90;11.13;;;;;;;4.52;70.94;99401.75;1732286;81;20925;-73
2022/03/31 10:30:16;;;;;;;14.97;11.70;;;;;;;4.53;70.58;99400.00;1717855;82;21038;-75
2022/03/31 10:33:04;;;;;;;18.60;11.60;;;;;;;4.58;70.64;99400.72;1663026;85;21189;-75
2022/03/31 10:35:40;;;;;;;17.33;12.80;;;;;;;4.65;70.53;99393.98;1668790;86;21040;-73
2022/03/31 10:38:20;;;;;;;18.17;12.47;;;;;;;4.73;70.45;99396.82;1668756;86;21059;-73
2022/03/31 10:40:54;;;;;;;15.78;11.60;;;;;;;4.78;70.30;99394.50;1700354;82;21054;-72
2022/03/31 10:43:29;;;;;;;20.17;11.97;;;;;;;4.89;70.45;99395.02;1695161;84;21012;-73
2022/03/31 10:45:58;;;;;;;14.40;11.57;;;;;;;4.98;70.34;99390.45;1700065;82;22324;-77
2022/03/31 10:48:28;;;;;;;15.88;11.48;;;;;;;5.04;70.28;99385.91;1690346;83;21028;-72
2022/03/31 10:51:11;;;;;;;17.50;11.33;;;;;;;5.11;69.90;99382.69;1692240;83;21031;-73
2022/03/31 10:53:48;;;;;;;16.60;11.10;;;;;;;5.14;69.84;99381.30;1697451;84;21044;-73
2022/03/31 10:56:27;;;;;;;16.30;11.77;;;;;;;5.18;69.54;99380.73;1697315;82;21070;-75
2022/03/31 10:58:57;;;;;;;14.87;10.63;;;;;;;5.22;69.49;99386.26;1699822;84;21982;-73
2022/03/31 11:01:34;;;;;;;16.60;11.33;;;;;;;5.27;69.34;99370.92;1700616;84;20988;-74
2022/03/31 11:04:11;;;;;;;11.97;10.10;;;;;;;5.32;69.23;99366.86;1728948;83;21535;-72
2022/03/31 11:06:49;;;;;;;16.20;11.73;;;;;;;5.42;69.48;99360.48;1728747;81;21004;-73
2022/03/31 11:09:23;;;;;;;17.73;11.30;;;;;;;5.56;69.15;99358.72;1725889;83;21513;-71
2022/03/31 11:11:51;;;;;;;16.87;11.67;;;;;;;5.67;69.27;99357.07;1725867;83;21155;-72
2022/03/31 11:14:19;;;;;;;16.10;11.20;;;;;;;5.76;69.06;99352.84;1725642;83;21075;-71
2022/03/31 11:16:46;;;;;;;15.23;11.00;;;;;;;5.83;68.53;99349.61;1725610;83;21078;-70
2022/03/31 11:19:13;;;;;;;13.47;10.63;;;;;;;5.92;68.59;99346.67;1725877;83;21640;-72
2022/03/31 11:21:43;;;;;;;15.17;10.83;;;;;;;6.00;68.54;99348.14;1725851;83;21031;-71
2022/03/31 11:24:10;;;;;;;17.00;11.27;;;;;;;6.17;68.41;99343.63;1714406;82;21191;-70
2022/03/31 11:26:46;;;;;;;14.83;9.97;;;;;;;6.29;68.18;99341.06;1725604;83;21019;-72
2022/03/31 11:29:19;;;;;;;13.67;9.90;;;;;;;6.37;67.95;99337.70;1695908;84;21047;-73
2022/03/31 11:31:49;;;;;;;15.73;10.57;;;;;;;6.48;67.83;99336.00;1695943;84;21016;-72
2022/03/31 11:34:26;;;;;;;12.57;9.73;;;;;;;6.53;67.38;99332.77;1726276;82;21575;-72
2022/03/31 11:36:54;;;;;;;13.93;9.80;;;;;;;6.54;67.24;99338.83;1725937;83;21276;-72
2022/03/31 11:39:28;;;;;;;14.73;9.90;;;;;;;6.60;67.19;99340.77;1725926;83;21055;-72
2022/03/31 11:41:54;;;;;;;14.40;9.93;;;;;;;6.53;66.82;99343.19;1725989;82;21015;-72
2022/03/31 11:44:22;;;;;;;12.63;9.10;;;;;;;6.48;66.74;99339.48;1726090;83;21011;-72
2022/03/31 11:46:50;;;;;;;12.93;8.67;;;;;;;6.49;66.74;99340.32;1725982;83;21027;-76